Time;durP1;ratioP1;P1;durP2;ratioP2;P2;SDS_P1;SDS_P2;PMS_P1;PMS_P2;Temp;Humidity;BMP_temperature;BMP_pressure;BME280_temperature;BME280_humidity;BME280_pressure;Samples;Min_cycle;Max_cycle;Signal;HPM_P1;HPM_P2
2023/12/18 00:02:19;;;;;;;5.43;2.33;;;;;;;18.83;39.46;103231.94;5084014;28;20038;-66
2023/12/18 00:04:45;;;;;;;4.57;2.20;;;;;;;18.78;39.69;103223.34;5080817;28;20423;-67
2023/12/18 00:07:10;;;;;;;4.53;2.35;;;;;;;18.81;39.77;103227.66;5085994;28;20040;-65
2023/12/18 00:09:36;;;;;;;5.30;2.45;;;;;;;18.80;39.72;103229.44;5086995;28;20028;-66
2023/12/18 00:12:01;;;;;;;5.25;2.35;;;;;;;18.77;39.60;103229.59;5089326;28;20435;-66
2023/12/18 00:14:26;;;;;;;4.97;2.70;;;;;;;18.77;39.49;103218.13;5090103;28;20719;-66
2023/12/18 00:16:51;;;;;;;5.33;2.80;;;;;;;18.75;39.64;103228.78;5090561;28;20043;-67
2023/12/18 00:19:17;;;;;;;5.65;2.38;;;;;;;18.66;39.35;103229.22;5090555;28;20264;-67
2023/12/18 00:21:42;;;;;;;4.90;2.60;;;;;;;18.72;39.59;103236.84;5090520;28;20028;-66
2023/12/18 00:24:07;;;;;;;5.40;2.60;;;;;;;18.61;39.48;103208.31;5090457;28;20027;-65
2023/12/18 00:26:32;;;;;;;6.63;2.72;;;;;;;18.55;39.38;103192.75;5090357;28;20039;-65
2023/12/18 00:28:58;;;;;;;5.38;2.60;;;;;;;18.60;39.31;103197.81;5090359;28;20503;-64
2023/12/18 00:31:23;;;;;;;6.53;2.85;;;;;;;18.65;39.43;103207.22;5090283;28;20950;-65
2023/12/18 00:33:48;;;;;;;7.88;2.70;;;;;;;18.61;39.59;103210.06;5090700;28;20133;-65
2023/12/18 00:36:14;;;;;;;4.97;2.80;;;;;;;18.60;39.59;103205.75;5090140;28;20552;-66
2023/12/18 00:38:39;;;;;;;5.32;2.60;;;;;;;18.64;39.50;103207.28;5090294;28;20256;-65
2023/12/18 00:41:04;;;;;;;4.93;2.67;;;;;;;18.56;39.30;103199.72;5089800;28;20028;-66
2023/12/18 00:43:30;;;;;;;5.57;2.92;;;;;;;18.61;39.61;103207.44;5089694;28;20224;-65
2023/12/18 00:45:55;;;;;;;5.68;2.80;;;;;;;18.61;39.46;103210.06;5088766;28;20058;-65
2023/12/18 00:48:21;;;;;;;4.60;2.65;;;;;;;18.60;39.74;103205.75;5089065;28;20051;-64
2023/12/18 00:50:46;;;;;;;4.40;2.58;;;;;;;18.52;39.71;103192.88;5088745;28;20028;-65
2023/12/18 00:53:16;;;;;;;4.72;2.70;;;;;;;18.51;39.46;103188.53;5089454;28;20028;-67
2023/12/18 00:55:41;;;;;;;5.43;2.65;;;;;;;18.50;39.44;103186.81;5088640;28;20111;-65
2023/12/18 00:58:06;;;;;;;4.93;2.65;;;;;;;18.56;39.59;103209.44;5088875;28;20120;-66
2023/12/18 01:00:32;;;;;;;4.70;2.53;;;;;;;18.54;39.46;103206.03;5089320;28;20032;-67
2023/12/18 01:02:57;;;;;;;5.32;2.75;;;;;;;18.55;39.34;103218.28;5087877;28;20043;-65
2023/12/18 01:05:22;;;;;;;5.15;2.70;;;;;;;18.54;39.58;103208.66;5084438;28;20040;-66
2023/12/18 01:07:47;;;;;;;5.80;2.67;;;;;;;18.43;39.51;103178.31;5089235;28;20024;-66
2023/12/18 01:10:13;;;;;;;5.05;2.80;;;;;;;18.52;39.54;103200.81;5089431;28;20256;-66
2023/12/18 01:12:38;;;;;;;5.72;3.00;;;;;;;18.51;39.44;103199.09;5088831;28;20036;-66
2023/12/18 01:15:04;;;;;;;5.78;3.08;;;;;;;18.41;39.62;103180.16;5089130;28;20421;-65
2023/12/18 01:17:29;;;;;;;6.30;2.83;;;;;;;18.40;39.33;103191.66;5088186;28;20034;-65
2023/12/18 01:19:55;;;;;;;4.38;2.55;;;;;;;18.40;39.51;103185.50;5087795;28;20056;-66
2023/12/18 01:22:20;;;;;;;6.38;3.10;;;;;;;18.47;39.50;103186.97;5083355;28;20060;-65
2023/12/18 01:24:46;;;;;;;5.53;3.03;;;;;;;18.36;39.57;103173.38;5087493;28;20028;-66
2023/12/18 01:27:11;;;;;;;6.20;2.95;;;;;;;18.37;39.43;103169.81;5044568;28;20119;-65
2023/12/18 01:29:40;;;;;;;5.43;3.10;;;;;;;18.46;39.56;103182.59;5085745;28;20473;-66
2023/12/18 01:32:07;;;;;;;5.22;3.00;;;;;;;18.34;39.73;103170.81;5087607;28;20105;-65
2023/12/18 01:34:33;;;;;;;5.85;3.30;;;;;;;18.42;39.43;103186.28;5085539;28;20081;-66
2023/12/18 01:36:58;;;;;;;6.10;2.77;;;;;;;18.36;39.24;103187.44;5087885;28;20032;-67
2023/12/18 01:39:23;;;;;;;5.28;2.92;;;;;;;18.34;39.60;103176.09;5088219;28;20271;-66
2023/12/18 01:41:48;;;;;;;6.27;3.10;;;;;;;18.34;39.73;103181.38;5087550;28;20536;-65
2023/12/18 01:44:14;;;;;;;5.73;3.40;;;;;;;18.41;39.79;103197.81;5087577;28;20272;-66
2023/12/18 01:46:39;;;;;;;5.40;2.87;;;;;;;18.30;39.64;103170.09;5088393;28;20292;-65
2023/12/18 01:49:05;;;;;;;6.05;3.17;;;;;;;18.31;39.80;103182.38;5086854;28;20806;-66
2023/12/18 01:51:30;;;;;;;5.93;2.83;;;;;;;18.38;39.91;103200.59;5087787;28;20139;-65
2023/12/18 01:53:58;;;;;;;7.05;3.47;;;;;;;18.27;39.67;103178.16;5088378;28;20032;-65
2023/12/18 01:56:25;;;;;;;5.55;2.90;;;;;;;18.36;39.78;103198.00;5088368;28;20028;-65
2023/12/18 01:58:53;;;;;;;5.88;3.03;;;;;;;18.27;39.64;103183.41;5088211;28;20035;-66
2023/12/18 02:01:18;;;;;;;5.82;3.20;;;;;;;18.23;39.79;103167.78;5087174;28;20468;-64
2023/12/18 02:03:44;;;;;;;5.70;2.72;;;;;;;18.33;39.77;103187.59;5086556;28;20024;-65
2023/12/18 02:06:13;;;;;;;6.72;3.13;;;;;;;18.25;39.90;103173.88;5052699;28;20032;-68
2023/12/18 02:08:39;;;;;;;5.47;2.97;;;;;;;18.33;39.74;103184.94;5085877;28;20035;-65
2023/12/18 02:11:04;;;;;;;7.05;3.40;;;;;;;18.23;39.65;103157.22;5086856;28;20032;-65
2023/12/18 02:13:30;;;;;;;5.38;3.25;;;;;;;18.31;39.84;103176.25;5087361;28;20849;-65
2023/12/18 02:15:57;;;;;;;5.55;2.78;;;;;;;18.33;40.02;103184.09;5087223;28;20024;-65
2023/12/18 02:18:22;;;;;;;7.20;3.10;;;;;;;18.31;39.83;103189.44;5087613;28;20028;-67
2023/12/18 02:20:48;;;;;;;5.47;3.35;;;;;;;18.21;39.84;103164.38;5068770;28;20105;-67
2023/12/18 02:23:13;;;;;;;6.45;3.05;;;;;;;18.28;39.71;103185.16;5087651;28;20127;-66
2023/12/18 02:25:38;;;;;;;5.07;2.90;;;;;;;18.23;40.16;103168.66;5087441;28;20044;-66
2023/12/18 02:28:08;;;;;;;5.95;3.03;;;;;;;18.27;39.94;103172.03;5087437;28;20031;-65
2023/12/18 02:30:33;;;;;;;6.63;3.17;;;;;;;18.28;39.88;103179.88;5087588;28;20040;-67
2023/12/18 02:32:58;;;;;;;5.95;3.15;;;;;;;18.26;39.99;103176.44;5086902;28;20034;-67
2023/12/18 02:35:25;;;;;;;6.22;3.03;;;;;;;18.20;39.88;103163.53;5087395;28;20590;-67
2023/12/18 02:37:50;;;;;;;5.05;2.85;;;;;;;18.24;39.85;103161.59;5087392;28;20027;-66
2023/12/18 02:40:16;;;;;;;7.20;3.15;;;;;;;18.26;39.97;103171.16;5087553;28;20082;-65
2023/12/18 02:42:41;;;;;;;6.03;2.92;;;;;;;18.27;39.76;103169.38;5087251;28;20035;-65
2023/12/18 02:45:07;;;;;;;5.40;3.10;;;;;;;18.26;40.04;103163.25;5087174;28;20032;-66
2023/12/18 02:47:32;;;;;;;5.07;3.25;;;;;;;18.22;39.75;103169.59;5086603;28;20052;-67
2023/12/18 02:49:57;;;;;;;6.00;3.30;;;;;;;18.24;40.29;103170.34;5086644;28;20032;-66
2023/12/18 02:52:23;;;;;;;5.53;3.42;;;;;;;18.24;39.84;103170.34;5086310;28;20066;-66
2023/12/18 02:54:48;;;;;;;6.78;2.95;;;;;;;18.23;39.87;103168.66;5078078;28;20025;-66
2023/12/18 02:57:13;;;;;;;5.65;3.15;;;;;;;18.21;40.13;103153.81;5065798;28;20024;-66
2023/12/18 02:59:38;;;;;;;5.90;3.00;;;;;;;18.22;40.06;103160.81;5066078;28;20407;-66
2023/12/18 03:02:04;;;;;;;5.45;2.75;;;;;;;18.17;39.71;103146.97;5066809;28;20269;-67
2023/12/18 03:04:29;;;;;;;6.78;3.25;;;;;;;18.13;39.98;103133.94;5074580;28;20478;-65
2023/12/18 03:06:54;;;;;;;4.70;2.80;;;;;;;18.12;39.96;103128.72;5086026;28;20032;-67
2023/12/18 03:09:20;;;;;;;5.15;3.20;;;;;;;18.21;40.02;103145.91;5087163;28;20036;-65
2023/12/18 03:11:47;;;;;;;5.80;3.40;;;;;;;18.21;39.83;103145.91;5086720;28;21639;-66
2023/12/18 03:14:12;;;;;;;5.55;3.38;;;;;;;18.17;39.83;103128.50;5086917;28;20087;-66
2023/12/18 03:16:37;;;;;;;5.07;2.75;;;;;;;18.18;40.15;103133.69;5086311;28;20408;-67
2023/12/18 03:19:03;;;;;;;6.60;3.40;;;;;;;18.10;39.87;103126.16;5086540;28;20134;-65
2023/12/18 03:21:28;;;;;;;7.13;3.40;;;;;;;18.19;39.95;103145.13;5084522;28;20127;-67
2023/12/18 03:23:54;;;;;;;8.15;3.00;;;;;;;18.10;40.04;103130.53;5084291;28;20039;-66
2023/12/18 03:26:19;;;;;;;6.30;3.33;;;;;;;18.18;39.96;103146.03;5085949;28;20069;-66
2023/12/18 03:28:45;;;;;;;6.10;3.22;;;;;;;18.17;39.96;103146.97;5086010;28;20050;-66
2023/12/18 03:31:10;;;;;;;6.85;3.72;;;;;;;18.09;39.92;103128.84;5085653;28;20456;-66
2023/12/18 03:33:36;;;;;;;4.80;3.03;;;;;;;18.04;40.16;103120.25;5086736;28;20148;-66
2023/12/18 03:36:03;;;;;;;5.90;3.30;;;;;;;18.08;40.06;103130.59;5068386;28;20047;-66
2023/12/18 03:38:29;;;;;;;6.10;2.85;;;;;;;18.09;39.89;103136.75;5066630;28;20029;-66
2023/12/18 03:40:54;;;;;;;5.47;2.97;;;;;;;18.04;40.15;103131.69;5064569;28;20033;-66
2023/12/18 03:43:19;;;;;;;6.25;3.47;;;;;;;18.13;40.20;103139.19;5065923;28;20047;-67
2023/12/18 03:45:45;;;;;;;5.68;2.92;;;;;;;18.11;39.94;103134.91;5065750;28;20068;-68
2023/12/18 03:48:10;;;;;;;6.88;3.65;;;;;;;18.04;40.29;103123.78;5080624;28;20048;-66
2023/12/18 03:50:35;;;;;;;7.55;3.60;;;;;;;18.04;40.10;103121.13;5086359;28;20032;-66
2023/12/18 03:53:01;;;;;;;7.13;3.30;;;;;;;18.03;39.99;103123.84;5086624;28;20035;-67
2023/12/18 03:55:26;;;;;;;6.72;3.28;;;;;;;18.05;40.10;103135.19;5086604;28;20264;-66
2023/12/18 03:57:51;;;;;;;5.65;3.22;;;;;;;18.11;40.02;103142.81;5086037;28;20028;-67
2023/12/18 04:00:17;;;;;;;6.70;3.65;;;;;;;18.11;39.96;103140.19;5086423;28;20379;-66
2023/12/18 04:02:42;;;;;;;8.40;3.20;;;;;;;18.00;40.13;103129.25;5084633;28;20028;-66
2023/12/18 04:05:08;;;;;;;6.70;3.47;;;;;;;18.00;39.88;103139.81;5080123;28;20106;-65
2023/12/18 04:07:33;;;;;;;6.22;3.50;;;;;;;18.10;40.05;103155.16;5085187;28;20086;-67
2023/12/18 04:09:58;;;;;;;6.15;3.35;;;;;;;18.00;40.15;103139.81;5085398;28;20473;-66
2023/12/18 04:12:23;;;;;;;6.90;3.40;;;;;;;18.09;40.26;103148.16;5085565;28;20112;-66
2023/12/18 04:14:49;;;;;;;5.85;3.20;;;;;;;18.09;40.17;103152.59;5085031;28;20024;-66
2023/12/18 04:17:14;;;;;;;5.28;3.03;;;;;;;18.06;40.00;103143.03;5066731;28;20036;-66
2023/12/18 04:19:39;;;;;;;7.27;3.70;;;;;;;18.08;40.14;103142.97;5085313;28;20032;-65
2023/12/18 04:22:05;;;;;;;6.07;3.50;;;;;;;18.07;40.07;103141.22;5067299;28;20277;-65
2023/12/18 04:24:30;;;;;;;5.20;2.95;;;;;;;17.96;40.09;103120.63;5085355;28;20265;-66
2023/12/18 04:26:55;;;;;;;6.63;3.38;;;;;;;18.02;40.11;103122.97;5084650;28;20047;-67
2023/12/18 04:29:21;;;;;;;6.35;3.30;;;;;;;18.04;40.11;103129.06;5085057;28;20063;-66
2023/12/18 04:31:47;;;;;;;6.10;3.38;;;;;;;17.93;40.03;103115.50;5084839;28;20043;-66
2023/12/18 04:34:12;;;;;;;5.40;3.33;;;;;;;17.93;39.90;103113.69;5085541;28;20077;-66
2023/12/18 04:36:38;;;;;;;6.43;3.60;;;;;;;18.05;40.12;103135.19;5085475;28;20020;-64
2023/12/18 04:39:04;;;;;;;6.93;3.88;;;;;;;18.04;40.22;103123.78;5085989;28;20028;-66
2023/12/18 04:41:29;;;;;;;6.55;3.70;;;;;;;18.02;40.16;103127.41;5082990;28;20028;-65
2023/12/18 04:43:54;;;;;;;6.88;3.55;;;;;;;18.03;40.31;103121.22;5085674;28;20039;-63
2023/12/18 04:46:20;;;;;;;5.88;3.40;;;;;;;18.03;40.18;103135.25;5085968;28;20032;-64
2023/12/18 04:48:45;;;;;;;5.93;3.30;;;;;;;18.03;40.04;103134.41;5086192;28;20048;-65
2023/12/18 04:51:10;;;;;;;5.30;3.43;;;;;;;17.89;40.13;103103.34;5085833;28;20256;-65
2023/12/18 04:53:36;;;;;;;6.63;3.40;;;;;;;17.92;40.09;103116.41;5085870;28;20613;-64
2023/12/18 04:56:03;;;;;;;6.82;3.42;;;;;;;17.81;40.23;103094.88;5088061;28;20430;-65
2023/12/18 04:58:30;;;;;;;6.97;3.20;;;;;;;17.93;40.10;103110.22;5089507;28;20047;-65
2023/12/18 05:00:56;;;;;;;5.40;3.20;;;;;;;17.91;40.19;103104.13;5088981;28;20108;-64
2023/12/18 05:03:21;;;;;;;7.50;3.33;;;;;;;17.91;40.04;103105.00;5087626;28;20185;-67
2023/12/18 05:05:46;;;;;;;5.27;3.17;;;;;;;17.99;39.81;103119.63;5084731;28;20110;-68
2023/12/18 05:08:12;;;;;;;6.93;3.60;;;;;;;17.97;40.14;103122.31;5089096;28;20637;-67
2023/12/18 05:10:37;;;;;;;5.68;3.25;;;;;;;17.98;40.28;103115.28;5089163;28;20292;-68
2023/12/18 05:13:02;;;;;;;5.97;3.20;;;;;;;17.96;40.20;103125.91;5088613;28;20483;-66
2023/12/18 05:15:28;;;;;;;6.78;3.80;;;;;;;17.94;40.32;103120.69;5089307;28;20921;-67
2023/12/18 05:17:53;;;;;;;6.60;3.80;;;;;;;17.95;39.97;103117.13;5086986;28;20456;-66
2023/12/18 05:20:18;;;;;;;5.93;3.42;;;;;;;17.89;40.18;103108.63;5088056;28;20264;-67
2023/12/18 05:22:43;;;;;;;7.30;3.80;;;;;;;17.95;40.39;103109.19;5088285;28;20036;-66
2023/12/18 05:25:10;;;;;;;6.20;3.30;;;;;;;17.96;40.17;103104.81;5082153;28;20613;-67
2023/12/18 05:27:35;;;;;;;6.80;3.78;;;;;;;17.93;40.30;103105.78;5086235;28;20279;-67
2023/12/18 05:30:00;;;;;;;6.55;3.47;;;;;;;17.85;40.25;103089.41;5088219;28;20032;-66
2023/12/18 05:32:26;;;;;;;7.57;3.60;;;;;;;17.86;40.22;103101.66;5088881;28;20480;-65
2023/12/18 05:34:51;;;;;;;5.97;3.45;;;;;;;17.87;40.12;103098.09;5089102;28;20059;-65
2023/12/18 05:37:16;;;;;;;6.33;3.80;;;;;;;17.92;40.03;103117.25;5088992;28;20035;-67
2023/12/18 05:39:41;;;;;;;8.60;4.00;;;;;;;17.94;40.34;103131.25;5088421;28;20620;-66
2023/12/18 05:42:07;;;;;;;5.60;3.40;;;;;;;17.90;40.09;103119.09;5088934;28;20303;-66
2023/12/18 05:44:32;;;;;;;6.30;3.40;;;;;;;17.94;40.39;103133.00;5088950;28;20067;-67
2023/12/18 05:46:57;;;;;;;8.33;3.70;;;;;;;17.83;40.46;103119.41;5088238;28;20052;-67
2023/12/18 05:49:23;;;;;;;6.85;3.53;;;;;;;17.83;40.10;103115.00;5086346;28;20367;-66
2023/12/18 05:51:49;;;;;;;8.10;3.90;;;;;;;17.91;40.17;103133.16;5068320;28;20432;-67
2023/12/18 05:54:15;;;;;;;7.05;3.85;;;;;;;17.85;40.57;103120.19;5052891;28;20035;-65
2023/12/18 05:56:40;;;;;;;6.38;3.30;;;;;;;17.87;40.67;103121.00;5088144;28;20424;-65
2023/12/18 05:59:05;;;;;;;5.60;3.00;;;;;;;17.85;40.50;103113.16;5079322;28;20029;-66
2023/12/18 06:01:30;;;;;;;6.97;3.10;;;;;;;17.96;40.91;103131.19;5067968;28;20037;-66
2023/12/18 06:03:56;;;;;;;5.97;2.97;;;;;;;17.89;40.88;103100.72;5066995;28;20124;-66
2023/12/18 06:06:21;;;;;;;5.55;3.03;;;;;;;17.91;41.00;103097.09;5086220;28;20387;-65
2023/12/18 06:08:46;;;;;;;5.32;2.92;;;;;;;17.95;40.86;103096.00;5074181;28;20071;-66
2023/12/18 06:11:11;;;;;;;6.07;2.60;;;;;;;17.99;41.09;103102.03;5066993;28;20024;-66
2023/12/18 06:13:39;;;;;;;4.85;2.53;;;;;;;18.12;40.90;103116.38;5066943;28;21053;-66
2023/12/18 06:16:04;;;;;;;4.63;2.38;;;;;;;18.13;41.02;103119.84;5066628;28;20032;-67
2023/12/18 06:18:30;;;;;;;4.65;2.20;;;;;;;18.18;41.20;103123.13;5066284;28;20032;-66
2023/12/18 06:20:55;;;;;;;4.87;2.27;;;;;;;18.22;40.82;103130.00;5066314;28;20029;-67
2023/12/18 06:23:20;;;;;;;4.47;2.60;;;;;;;18.16;40.86;103110.94;5066802;28;20508;-66
2023/12/18 06:25:45;;;;;;;4.28;2.42;;;;;;;18.17;40.89;103113.53;5066275;28;21630;-67
2023/12/18 06:28:11;;;;;;;4.33;2.00;;;;;;;18.22;40.95;103100.97;5067046;28;20071;-67
2023/12/18 06:30:36;;;;;;;4.03;2.30;;;;;;;18.25;41.12;103106.09;5067077;28;20269;-67
2023/12/18 06:33:01;;;;;;;5.60;2.50;;;;;;;18.28;41.04;103113.03;5067569;28;20058;-68
2023/12/18 06:35:26;;;;;;;5.13;2.10;;;;;;;18.34;40.97;103118.03;5066735;28;20028;-68
2023/12/18 06:37:52;;;;;;;6.70;3.15;;;;;;;18.36;40.95;103118.81;5067708;28;20136;-68
2023/12/18 06:40:17;;;;;;;5.40;2.20;;;;;;;18.34;40.96;103102.19;5066241;28;21311;-65
2023/12/18 06:42:42;;;;;;;5.23;2.27;;;;;;;18.33;40.77;103103.09;5066923;28;20741;-66
2023/12/18 06:45:08;;;;;;;4.90;2.38;;;;;;;18.34;41.02;103094.28;5065481;28;20265;-67
2023/12/18 06:47:33;;;;;;;4.43;2.28;;;;;;;18.41;40.74;103111.53;5078736;28;20056;-66
2023/12/18 06:49:59;;;;;;;5.20;2.25;;;;;;;18.44;40.81;103113.19;5081364;28;20044;-67
2023/12/18 06:52:24;;;;;;;4.68;2.05;;;;;;;18.47;40.91;103110.41;5080065;28;20471;-66
2023/12/18 06:54:50;;;;;;;4.40;2.05;;;;;;;18.49;40.96;103113.81;5086569;28;20024;-65
2023/12/18 06:57:16;;;;;;;6.85;2.35;;;;;;;18.43;40.91;103099.09;5080323;28;20035;-66
2023/12/18 06:59:41;;;;;;;3.78;2.08;;;;;;;18.52;40.90;103115.44;5086638;28;20047;-66
2023/12/18 07:02:06;;;;;;;4.13;2.17;;;;;;;18.46;40.89;103103.38;5083186;28;20502;-66
2023/12/18 07:04:32;;;;;;;6.07;2.30;;;;;;;18.55;40.85;103116.16;5080693;28;20029;-67
2023/12/18 07:06:57;;;;;;;5.03;2.20;;;;;;;18.47;40.90;103107.75;5086760;28;20050;-66
2023/12/18 07:09:24;;;;;;;5.63;2.38;;;;;;;18.55;40.82;103121.44;5087017;28;20024;-66
2023/12/18 07:11:49;;;;;;;4.85;2.22;;;;;;;18.46;40.92;103108.66;5086669;28;20471;-65
2023/12/18 07:14:15;;;;;;;5.00;2.30;;;;;;;18.56;40.81;103112.56;5086697;28;20040;-67
2023/12/18 07:16:40;;;;;;;5.88;2.30;;;;;;;18.54;40.79;103121.50;5086876;28;20028;-68
2023/12/18 07:19:06;;;;;;;5.72;2.20;;;;;;;18.47;40.80;103102.47;5086634;28;20028;-67
2023/12/18 07:21:31;;;;;;;7.57;2.40;;;;;;;18.58;40.80;103126.59;5083384;28;20462;-67
2023/12/18 07:23:56;;;;;;;5.93;2.63;;;;;;;18.50;40.64;103104.97;5083321;28;20032;-68
2023/12/18 07:26:22;;;;;;;5.10;2.60;;;;;;;18.60;40.62;103130.00;5082128;28;20032;-66
2023/12/18 07:28:47;;;;;;;6.63;2.50;;;;;;;18.54;40.65;103118.88;5086019;28;20736;-65
2023/12/18 07:31:13;;;;;;;5.45;2.83;;;;;;;18.54;40.97;103121.50;5086382;28;20097;-66
2023/12/18 07:33:38;;;;;;;5.18;2.30;;;;;;;18.60;40.89;103137.06;5086377;28;20368;-65
2023/12/18 07:36:04;;;;;;;6.68;2.67;;;;;;;18.55;41.27;103125.84;5086777;28;20476;-67
2023/12/18 07:38:30;;;;;;;5.07;2.28;;;;;;;18.52;41.24;103115.44;5086633;28;20115;-66
2023/12/18 07:40:56;;;;;;;4.97;2.40;;;;;;;18.60;41.18;103130.00;5086575;28;20135;-65
2023/12/18 07:43:21;;;;;;;4.55;2.40;;;;;;;18.59;41.46;103127.44;5086290;28;20035;-66
2023/12/18 07:45:46;;;;;;;4.97;2.47;;;;;;;18.51;41.35;103113.75;5086189;28;20040;-67
2023/12/18 07:48:12;;;;;;;4.55;2.42;;;;;;;18.55;41.31;103115.28;5086083;28;20281;-67
2023/12/18 07:50:37;;;;;;;5.38;2.60;;;;;;;18.61;41.73;103126.44;5086155;28;20021;-69
2023/12/18 07:53:03;;;;;;;5.43;2.90;;;;;;;18.56;41.43;103117.84;5086062;28;20036;-66
2023/12/18 07:55:28;;;;;;;5.07;2.33;;;;;;;18.54;41.68;103114.44;5084523;28;20024;-66
2023/12/18 07:57:53;;;;;;;4.45;2.53;;;;;;;18.62;41.84;103128.13;5085870;28;20118;-67
2023/12/18 08:00:19;;;;;;;5.78;2.60;;;;;;;18.53;41.73;103111.88;5085954;28;20042;-64
2023/12/18 08:02:44;;;;;;;5.03;2.92;;;;;;;18.61;41.89;103128.19;5080924;28;20032;-67
2023/12/18 08:05:09;;;;;;;7.38;3.08;;;;;;;18.61;41.78;103123.81;5075513;28;20077;-66
2023/12/18 08:07:34;;;;;;;4.90;2.53;;;;;;;18.53;42.00;103103.94;5086082;28;20510;-66
2023/12/18 08:10:00;;;;;;;5.00;2.63;;;;;;;18.62;41.91;103108.81;5085768;28;20028;-65
2023/12/18 08:12:25;;;;;;;5.72;2.72;;;;;;;18.61;42.00;103115.00;5086076;28;20265;-67
2023/12/18 08:14:50;;;;;;;5.30;2.78;;;;;;;18.61;42.26;103109.72;5086223;28;20073;-65
2023/12/18 08:17:16;;;;;;;4.13;2.38;;;;;;;18.55;42.19;103094.16;5080368;28;20028;-65
2023/12/18 08:19:48;;;;;;;5.85;2.38;;;;;;;18.58;42.25;103088.72;5086535;28;20465;-65
2023/12/18 08:22:14;;;;;;;4.90;2.38;;;;;;;18.69;42.25;103104.91;5086130;28;20032;-68
2023/12/18 08:24:40;;;;;;;6.28;2.35;;;;;;;18.76;42.20;103102.88;5086371;28;20032;-65
2023/12/18 08:27:05;;;;;;;4.75;2.10;;;;;;;18.73;42.19;103092.44;5085941;28;20122;-67
2023/12/18 08:29:30;;;;;;;8.45;2.35;;;;;;;18.85;42.26;103099.81;5086052;28;20456;-65
2023/12/18 08:31:55;;;;;;;4.55;2.00;;;;;;;18.86;42.07;103083.00;5090069;28;20044;-68
2023/12/18 08:34:21;;;;;;;4.97;2.25;;;;;;;18.88;41.74;103088.22;5089751;28;20028;-66
2023/12/18 08:36:46;;;;;;;6.85;2.70;;;;;;;18.93;41.40;103100.28;5089763;28;20189;-65
2023/12/18 08:39:12;;;;;;;5.70;2.58;;;;;;;18.89;41.51;103100.50;5089313;28;20031;-65
2023/12/18 08:41:38;;;;;;;5.25;2.33;;;;;;;18.86;41.60;103109.44;5089656;28;20039;-67
2023/12/18 08:44:04;;;;;;;5.03;2.25;;;;;;;18.74;41.64;103097.66;5089534;28;20051;-67
2023/12/18 08:46:29;;;;;;;5.18;2.40;;;;;;;18.73;41.50;103088.00;5085609;28;20032;-67
2023/12/18 08:48:54;;;;;;;6.50;2.88;;;;;;;18.77;41.65;103094.88;5073291;28;20033;-66
2023/12/18 08:51:20;;;;;;;5.63;2.72;;;;;;;18.72;41.80;103094.22;5067964;28;20032;-66
2023/12/18 08:53:45;;;;;;;7.27;2.73;;;;;;;18.70;41.68;103077.59;5068053;28;20111;-67
2023/12/18 08:56:10;;;;;;;7.50;2.97;;;;;;;18.75;41.71;103093.22;5080137;28;20272;-67
2023/12/18 08:58:37;;;;;;;7.07;3.27;;;;;;;18.70;41.56;103079.38;5087880;28;20621;-66
2023/12/18 09:01:03;;;;;;;5.78;3.25;;;;;;;18.73;41.75;103085.38;5087980;28;20345;-66
2023/12/18 09:03:34;;;;;;;7.43;3.10;;;;;;;18.66;41.78;103073.41;5079159;28;20473;-67
2023/12/18 09:06:00;;;;;;;6.85;3.45;;;;;;;18.70;41.60;103085.50;5069297;28;20127;-69
2023/12/18 09:08:25;;;;;;;5.93;3.13;;;;;;;18.68;41.75;103069.72;5067674;28;20657;-69
2023/12/18 09:10:50;;;;;;;6.70;3.43;;;;;;;18.72;41.51;103075.72;5068007;28;20149;-68
2023/12/18 09:13:16;;;;;;;7.47;3.23;;;;;;;18.78;41.76;103086.00;5068395;28;20263;-68
2023/12/18 09:15:41;;;;;;;6.90;3.10;;;;;;;18.81;41.70;103090.28;5067887;28;20285;-68
2023/12/18 09:18:07;;;;;;;7.90;3.08;;;;;;;18.76;41.60;103076.44;5077500;28;20035;-65
2023/12/18 09:20:33;;;;;;;5.63;2.78;;;;;;;18.77;41.75;103081.66;5075802;28;20039;-65
2023/12/18 09:22:58;;;;;;;6.75;2.90;;;;;;;18.68;41.82;103068.88;5076017;28;20067;-65
2023/12/18 09:25:23;;;;;;;7.03;3.20;;;;;;;18.75;41.94;103077.38;5066308;28;20032;-69
2023/12/18 09:27:48;;;;;;;6.38;3.20;;;;;;;18.77;42.00;103075.50;5074535;28;20065;-69
2023/12/18 09:30:14;;;;;;;5.88;3.22;;;;;;;18.82;42.22;103084.91;5088017;28;20387;-68
2023/12/18 09:32:39;;;;;;;7.32;3.13;;;;;;;18.81;42.18;103091.13;5086945;28;20024;-68
2023/12/18 09:35:05;;;;;;;5.17;2.80;;;;;;;18.80;42.11;103094.72;5087681;28;20040;-68
2023/12/18 09:37:30;;;;;;;6.97;3.00;;;;;;;18.76;42.28;103092.28;5076205;28;20292;-67
2023/12/18 09:39:56;;;;;;;7.10;3.10;;;;;;;18.81;42.23;103095.56;5086815;28;20043;-66
2023/12/18 09:42:21;;;;;;;6.40;2.80;;;;;;;18.74;42.09;103084.44;5085858;28;20032;-67
2023/12/18 09:44:47;;;;;;;7.03;2.95;;;;;;;18.84;42.21;103095.44;5067463;28;20119;-66
2023/12/18 09:47:13;;;;;;;6.35;2.80;;;;;;;18.83;42.14;103091.06;5066910;28;20609;-68
2023/12/18 09:49:39;;;;;;;6.22;2.92;;;;;;;18.83;42.11;103093.69;5087110;28;20028;-67
2023/12/18 09:52:08;;;;;;;5.60;2.90;;;;;;;18.83;42.31;103091.06;5088462;28;20479;-68
2023/12/18 09:54:34;;;;;;;7.00;3.03;;;;;;;18.82;42.08;103089.34;5088102;28;20038;-67
2023/12/18 09:57:02;;;;;;;6.82;3.25;;;;;;;18.77;41.88;103083.41;5088383;28;20032;-67
2023/12/18 09:59:28;;;;;;;5.72;2.90;;;;;;;18.82;42.05;103086.72;5088363;28;20028;-66
2023/12/18 10:01:54;;;;;;;7.70;3.17;;;;;;;18.73;41.92;103068.66;5085042;28;20136;-67
2023/12/18 10:04:19;;;;;;;6.40;3.00;;;;;;;18.80;41.98;103078.00;5081145;28;20032;-67
2023/12/18 10:06:45;;;;;;;7.00;3.10;;;;;;;18.68;42.21;103061.81;5086445;28;20032;-66
2023/12/18 10:09:14;;;;;;;6.40;3.30;;;;;;;18.77;42.00;103084.28;5087056;28;20067;-67
2023/12/18 10:11:41;;;;;;;6.65;2.97;;;;;;;18.77;42.06;103079.00;5087033;28;20253;-69
2023/12/18 10:14:06;;;;;;;6.70;3.03;;;;;;;18.67;42.18;103073.31;5087009;28;20067;-67
2023/12/18 10:16:32;;;;;;;6.50;3.30;;;;;;;18.65;41.96;103061.13;5087478;28;20067;-66
2023/12/18 10:18:58;;;;;;;5.55;2.90;;;;;;;18.74;42.16;103083.56;5087622;28;20162;-66
2023/12/18 10:21:23;;;;;;;5.50;3.00;;;;;;;18.71;42.27;103078.44;5087522;28;20036;-66
2023/12/18 10:23:51;;;;;;;6.75;3.00;;;;;;;18.63;42.19;103068.25;5087770;28;20476;-66
2023/12/18 10:26:16;;;;;;;5.85;2.67;;;;;;;18.71;42.30;103076.66;5087537;28;20131;-65
2023/12/18 10:28:41;;;;;;;6.47;3.10;;;;;;;18.68;42.34;103082.09;5087868;28;20142;-67
2023/12/18 10:31:09;;;;;;;6.30;2.75;;;;;;;18.61;42.43;103073.63;5081672;28;20388;-68
2023/12/18 10:33:35;;;;;;;6.43;3.10;;;;;;;18.70;42.34;103080.22;5077527;28;20033;-66
2023/12/18 10:36:00;;;;;;;8.50;3.60;;;;;;;18.70;42.34;103074.09;5086723;28;20510;-68
2023/12/18 10:38:29;;;;;;;6.28;3.42;;;;;;;18.62;42.61;103056.81;5086692;28;20427;-69
2023/12/18 10:40:59;;;;;;;6.00;3.15;;;;;;;18.62;42.73;103051.53;5086309;28;20035;-67
2023/12/18 10:43:24;;;;;;;6.60;3.42;;;;;;;18.60;42.81;103034.09;5086880;28;20080;-65
2023/12/18 10:45:52;;;;;;;6.28;3.30;;;;;;;18.73;42.85;103063.38;5086669;28;20043;-66
2023/12/18 10:48:19;;;;;;;7.18;3.10;;;;;;;18.65;42.71;103046.13;5086368;28;20127;-67
2023/12/18 10:50:47;;;;;;;7.20;3.10;;;;;;;18.65;42.67;103037.34;5086614;28;20468;-67
2023/12/18 10:53:17;;;;;;;6.03;3.10;;;;;;;18.65;42.85;103034.69;5085773;28;20380;-67
2023/12/18 10:55:42;;;;;;;5.75;3.42;;;;;;;18.66;42.93;103034.63;5086292;28;20032;-66
2023/12/18 10:58:10;;;;;;;5.28;3.15;;;;;;;18.75;42.88;103041.22;5086374;28;20039;-67
2023/12/18 11:00:37;;;;;;;7.05;3.42;;;;;;;18.75;42.68;103037.75;5086378;28;20063;-66
2023/12/18 11:03:05;;;;;;;8.15;3.28;;;;;;;18.66;42.68;103010.00;5085049;28;20036;-65
2023/12/18 11:05:31;;;;;;;7.03;3.38;;;;;;;18.76;42.95;103028.91;5080955;28;20084;-65
2023/12/18 11:07:57;;;;;;;6.53;3.28;;;;;;;18.77;42.93;103033.22;5086130;28;20027;-68
2023/12/18 11:10:27;;;;;;;5.53;2.80;;;;;;;18.76;42.99;103035.03;5086074;28;20028;-67
2023/12/18 11:13:03;;;;;;;6.93;3.30;;;;;;;18.77;42.85;103038.50;5085950;28;20032;-65
2023/12/18 11:15:50;;;;;;;5.90;3.05;;;;;;;18.77;42.92;103042.03;5085456;28;20430;-66
2023/12/18 11:18:42;;;;;;;7.93;3.83;;;;;;;18.69;42.96;103025.69;5086025;28;20024;-66